Airfield :







YOU CAN JOIN US ON...

 
LOGIN :

Register | Disclaimer

   EN    FR    IT 

 









Legend :    VFR   Marginal VFR   IFR   Intensive IFR   Very Intensive IFR
Visi :
Ceiling :
>= 8 km
>= 3000ft
5 to 8 km
1000 to 3000 ft
1500m to 5 km
500 to 1000 ft
800 to 1500m
200 to 500 ft
< 800m
< 200 ft
Symbols :   Thunderstorms  Fog  Heavy snow  Heavy precipitations  Wind > 20 kt






- Airport Elevation : 76 ft
- IATA code : PWM


KPWM - Portland International Jetport

CURRENT METAR :
  • 271451Z 10029G39KT 1 1/2SM -RA BR OVC006 06/03 A2926 RMK AO2 PK WND 10040/1417 PRESFR SLP908 P0037 60084 T00560033 58080

EXPIRED METARs :
  • 271351Z 09025G39KT 1 1/4SM +RA BR OVC006 06/03 A2934 RMK AO2 PK WND 09041/1257 SLP937 P0026 T00560033
  • 271251Z 09027G38KT 1 1/4SM +RA BR OVC006 05/03 A2943 RMK AO2 PK WND 09038/1229 PRESFR SLP964 P0021 T00500033

TAF KPWM
Valid from the 27 at 12:00 until the 28 at 12:00 UTC


271156Z 2712/2812 08020G36KT 1 1/2SM +RA BR OVC005 WS020/11050KT
FM271700 15014G24KT P6SM OVC008
FM271900 24013G23KT P6SM BKN035



MET'MAP, your aeronautical weather chart ! - Copyright ORBIFLY December 2007 - Disclaimer

ORBIFLY MET'MAP TEAM :

Programming & Development : Alexandra Zaïnal
Concept & original design : Baudouin d'Aumeries
Assistance for programming : Marc-Olivier Méhu
Technical & hardware support : Manuel Goepfert

Contact : metmap@orbifly.com




SOURCES & CREDITS :

   NOAA